createdAt,value
2023-02-11T00:01:12.244Z,6.29
2023-02-11T00:03:39.027Z,6.28
2023-02-11T00:06:11.251Z,6.27
2023-02-11T00:08:38.868Z,6.27
2023-02-11T00:11:05.867Z,6.28
2023-02-11T00:13:32.616Z,6.27
2023-02-11T00:15:59.278Z,6.26
2023-02-11T00:18:25.886Z,6.26
2023-02-11T00:20:52.349Z,6.25
2023-02-11T00:23:18.965Z,6.24
2023-02-11T00:25:45.993Z,6.26
2023-02-11T00:28:13.083Z,6.27
2023-02-11T00:30:40.221Z,6.26
2023-02-11T00:33:07.191Z,6.25
2023-02-11T00:35:33.875Z,6.23
2023-02-11T00:38:00.407Z,6.22
2023-02-11T00:40:27.247Z,6.22
2023-02-11T00:42:53.835Z,6.22
2023-02-11T00:45:21.395Z,6.22
2023-02-11T00:47:48.315Z,6.23
2023-02-11T00:50:15.140Z,6.21
2023-02-11T00:52:42.041Z,6.21
2023-02-11T00:55:08.744Z,6.22
2023-02-11T00:57:35.500Z,6.21
2023-02-11T01:00:02.326Z,6.21
2023-02-11T01:02:28.926Z,6.21
2023-02-11T01:04:55.459Z,6.20
2023-02-11T01:07:22.090Z,6.19
2023-02-11T01:09:48.632Z,6.18
2023-02-11T01:12:15.294Z,6.18
2023-02-11T01:14:41.854Z,6.17
2023-02-11T01:17:08.633Z,6.16
2023-02-11T01:19:37.842Z,6.15
2023-02-11T01:22:04.906Z,6.13
2023-02-11T01:24:32.180Z,6.12
2023-02-11T01:26:59.023Z,6.08
2023-02-11T01:29:25.557Z,6.08
2023-02-11T01:31:52.751Z,6.05
2023-02-11T01:34:19.405Z,6.03
2023-02-11T01:36:45.998Z,6.02
2023-02-11T01:39:12.610Z,6.01
2023-02-11T01:41:39.269Z,6.00
2023-02-11T01:44:23.096Z,6.00
2023-02-11T01:46:49.988Z,5.98
2023-02-11T01:49:22.777Z,5.99
2023-02-11T01:51:58.961Z,5.96
2023-02-11T01:54:48.577Z,5.98
2023-02-11T01:57:25.252Z,5.98
2023-02-11T02:00:18.057Z,5.97
2023-02-11T02:03:06.008Z,5.97
2023-02-11T02:05:43.161Z,5.96
2023-02-11T02:08:25.542Z,5.94
2023-02-11T02:10:56.532Z,5.94
2023-02-11T02:13:23.947Z,5.92
2023-02-11T02:15:53.109Z,5.92
2023-02-11T02:18:38.654Z,5.92
2023-02-11T02:21:14.305Z,5.90
2023-02-11T02:24:17.991Z,5.90
2023-02-11T02:26:59.593Z,5.91
2023-02-11T02:29:44.813Z,5.88
2023-02-11T02:32:36.623Z,5.87
2023-02-11T02:35:41.551Z,5.84
2023-02-11T02:38:29.766Z,5.82
2023-02-11T02:41:12.922Z,5.79
2023-02-11T02:43:47.871Z,5.76
2023-02-11T02:46:24.800Z,5.73
2023-02-11T02:48:53.753Z,5.73
2023-02-11T02:51:45.278Z,5.72
2023-02-11T02:54:49.276Z,5.72
2023-02-11T02:57:34.240Z,5.70
2023-02-11T03:00:14.926Z,5.70
2023-02-11T03:03:03.882Z,5.69
2023-02-11T03:05:47.145Z,5.69
2023-02-11T03:08:25.075Z,5.70
2023-02-11T03:10:53.779Z,5.71
2023-02-11T03:13:24.662Z,5.71
2023-02-11T03:15:54.336Z,5.71
2023-02-11T03:18:26.418Z,5.70
2023-02-11T03:20:54.740Z,5.70
2023-02-11T03:23:28.849Z,5.68
2023-02-11T03:26:05.199Z,5.67
2023-02-11T03:28:41.775Z,5.68
2023-02-11T03:31:27.112Z,5.66
2023-02-11T03:34:02.536Z,5.65
2023-02-11T03:36:38.348Z,5.64
2023-02-11T03:39:07.394Z,5.64
2023-02-11T03:41:35.624Z,5.65
2023-02-11T03:44:03.503Z,5.63
2023-02-11T03:46:38.310Z,5.63
2023-02-11T03:49:12.330Z,5.62
2023-02-11T03:51:39.609Z,5.61
2023-02-11T03:54:14.265Z,5.59
2023-02-11T03:56:52.671Z,5.57
2023-02-11T03:59:19.436Z,5.55
2023-02-11T04:01:46.126Z,5.55
2023-02-11T04:04:12.744Z,5.53
2023-02-11T04:06:39.380Z,5.53
2023-02-11T04:09:05.920Z,5.53
2023-02-11T04:11:32.917Z,5.52
2023-02-11T04:13:59.931Z,5.52
2023-02-11T04:16:27.152Z,5.52
2023-02-11T04:18:53.946Z,5.52
2023-02-11T04:21:20.660Z,5.53
2023-02-11T04:23:47.229Z,5.54
2023-02-11T04:26:14.091Z,5.57
2023-02-11T04:28:40.711Z,5.58
2023-02-11T04:31:07.698Z,5.58
2023-02-11T04:33:34.402Z,5.60
2023-02-11T04:36:01.009Z,5.60
2023-02-11T04:38:27.710Z,5.61
2023-02-11T04:40:54.291Z,5.63
2023-02-11T04:43:20.882Z,5.63
2023-02-11T04:45:47.473Z,5.63
2023-02-11T04:48:14.184Z,5.65
2023-02-11T04:50:41.930Z,5.65
2023-02-11T04:53:08.540Z,5.66
2023-02-11T04:55:35.141Z,5.68
2023-02-11T04:58:01.920Z,5.67
2023-02-11T05:00:28.470Z,5.68
2023-02-11T05:02:55.063Z,5.70
2023-02-11T05:05:21.792Z,5.69
2023-02-11T05:07:48.566Z,5.71
2023-02-11T05:10:15.425Z,5.72
2023-02-11T05:12:42.094Z,5.72
2023-02-11T05:15:09.153Z,5.73
2023-02-11T05:17:35.731Z,5.75
2023-02-11T05:20:02.391Z,5.76
2023-02-11T05:22:29.018Z,5.76
2023-02-11T05:24:55.505Z,5.77
2023-02-11T05:27:22.117Z,5.76
2023-02-11T05:29:48.768Z,5.77
2023-02-11T05:32:15.523Z,5.77
2023-02-11T05:34:42.096Z,5.78
2023-02-11T05:37:08.779Z,5.79
2023-02-11T05:39:35.414Z,5.80
2023-02-11T05:42:01.953Z,5.79
2023-02-11T05:44:28.480Z,5.80
2023-02-11T05:46:55.088Z,5.82
2023-02-11T05:49:21.893Z,5.83
2023-02-11T05:51:48.727Z,5.84
2023-02-11T05:54:15.411Z,5.84
2023-02-11T05:56:44.609Z,5.85
2023-02-11T05:59:14.260Z,5.86
2023-02-11T06:01:41.190Z,5.86
2023-02-11T06:04:07.986Z,5.88
2023-02-11T06:06:34.498Z,5.87
2023-02-11T06:09:01.132Z,5.88
2023-02-11T06:11:27.769Z,5.88
2023-02-11T06:13:54.453Z,5.89
2023-02-11T06:16:21.156Z,5.90
2023-02-11T06:18:47.914Z,5.91
2023-02-11T06:21:14.489Z,5.92
2023-02-11T06:23:41.073Z,5.92
2023-02-11T06:26:09.231Z,5.93
2023-02-11T06:28:36.365Z,5.95
2023-02-11T06:31:07.793Z,5.95
2023-02-11T06:33:35.357Z,5.96
2023-02-11T06:36:02.840Z,5.96
2023-02-11T06:38:29.468Z,5.96
2023-02-11T06:40:56.093Z,5.97
2023-02-11T06:43:22.817Z,5.98
2023-02-11T06:45:54.506Z,5.98
2023-02-11T06:48:21.622Z,6.00
2023-02-11T06:50:48.389Z,6.00
2023-02-11T06:53:15.008Z,6.02
2023-02-11T06:55:41.763Z,6.00
2023-02-11T06:58:08.537Z,6.03
2023-02-11T07:00:35.128Z,6.04
2023-02-11T07:03:01.686Z,6.05
2023-02-11T07:05:28.357Z,6.06
2023-02-11T07:07:54.981Z,6.06
2023-02-11T07:10:21.792Z,6.07
2023-02-11T07:12:48.317Z,6.09
2023-02-11T07:15:15.011Z,6.09
2023-02-11T07:17:41.588Z,6.11
2023-02-11T07:20:09.865Z,6.13
2023-02-11T07:22:37.443Z,6.12
2023-02-11T07:25:04.823Z,6.14
2023-02-11T07:27:31.522Z,6.17
2023-02-11T07:29:58.054Z,6.18
2023-02-11T07:32:24.981Z,6.19
2023-02-11T07:34:51.672Z,6.23
2023-02-11T07:37:18.822Z,6.28
2023-02-11T07:39:45.587Z,6.34
2023-02-11T07:42:12.201Z,6.45
2023-02-11T07:44:38.784Z,6.53
2023-02-11T07:47:05.507Z,6.60
2023-02-11T07:49:32.190Z,6.70
2023-02-11T07:51:58.962Z,6.79
2023-02-11T07:54:25.642Z,6.87
2023-02-11T07:56:52.203Z,6.95
2023-02-11T07:59:18.937Z,7.02
2023-02-11T08:01:45.716Z,7.09
2023-02-11T08:04:12.342Z,7.15
2023-02-11T08:06:42.737Z,7.23
2023-02-11T08:09:15.220Z,7.28
2023-02-11T08:11:41.809Z,7.37
2023-02-11T08:14:09.142Z,7.44
2023-02-11T08:16:37.362Z,7.46
2023-02-11T08:19:07.083Z,7.54
2023-02-11T08:21:34.168Z,7.60
2023-02-11T08:24:03.034Z,7.63
2023-02-11T08:26:31.981Z,7.68
2023-02-11T08:28:59.100Z,7.74
2023-02-11T08:31:28.445Z,7.78
2023-02-11T08:33:58.076Z,7.83
2023-02-11T08:36:31.913Z,7.89
2023-02-11T08:39:16.147Z,7.86
2023-02-11T08:41:45.137Z,7.88
2023-02-11T08:44:11.840Z,7.95
2023-02-11T08:46:38.496Z,7.98
2023-02-11T08:49:05.135Z,8.01
2023-02-11T08:51:31.889Z,8.06
2023-02-11T08:53:59.448Z,8.03
2023-02-11T08:56:27.146Z,8.08
2023-02-11T08:58:54.003Z,8.10
2023-02-11T09:01:24.272Z,8.11
2023-02-11T09:03:51.976Z,8.13
2023-02-11T09:06:19.734Z,8.19
2023-02-11T09:08:49.561Z,8.20
2023-02-11T09:11:18.456Z,8.24
2023-02-11T09:13:45.737Z,8.30
2023-02-11T09:16:18.576Z,8.30
2023-02-11T09:18:45.714Z,8.36
2023-02-11T09:21:13.606Z,8.42
2023-02-11T09:23:43.600Z,8.46
2023-02-11T09:26:18.975Z,8.49
2023-02-11T09:28:46.409Z,8.53
2023-02-11T09:31:15.783Z,8.56
2023-02-11T09:33:48.122Z,8.60
2023-02-11T09:36:17.314Z,8.64
2023-02-11T09:38:44.915Z,8.70
2023-02-11T09:41:23.743Z,8.71
2023-02-11T09:43:53.859Z,8.81
2023-02-11T09:46:23.480Z,8.78
2023-02-11T09:48:55.272Z,8.81
2023-02-11T09:51:24.816Z,8.86
2023-02-11T09:54:00.317Z,8.88
2023-02-11T09:56:28.595Z,8.91
2023-02-11T09:58:55.380Z,8.93
2023-02-11T10:01:34.767Z,8.95
2023-02-11T10:04:04.913Z,8.97
2023-02-11T10:06:42.218Z,9.06
2023-02-11T10:09:21.684Z,9.04
2023-02-11T10:11:53.881Z,9.09
2023-02-11T10:14:50.918Z,9.14
2023-02-11T10:17:37.625Z,9.16
2023-02-11T10:20:26.618Z,9.17
2023-02-11T10:22:58.952Z,9.25
2023-02-11T10:25:34.583Z,9.28
2023-02-11T10:28:11.739Z,9.40
2023-02-11T10:30:44.135Z,9.43
2023-02-11T10:33:25.910Z,9.48
2023-02-11T10:35:53.208Z,9.57
2023-02-11T10:38:20.278Z,9.65
2023-02-11T10:40:46.912Z,9.68
2023-02-11T10:43:19.292Z,9.73
2023-02-11T10:45:54.484Z,9.78
2023-02-11T10:48:40.045Z,9.77
2023-02-11T10:51:21.647Z,9.72
2023-02-11T10:53:51.461Z,9.80
2023-02-11T10:56:28.050Z,9.76
2023-02-11T10:59:14.267Z,9.78
2023-02-11T11:01:46.706Z,9.83
2023-02-11T11:04:33.830Z,9.82
2023-02-11T11:07:27.626Z,9.85
2023-02-11T11:10:25.179Z,9.88
2023-02-11T11:12:52.362Z,9.93
2023-02-11T11:15:32.650Z,10.02
2023-02-11T11:18:21.507Z,10.06
2023-02-11T11:21:03.369Z,10.09
2023-02-11T11:23:32.183Z,10.18
2023-02-11T11:26:02.115Z,10.22
2023-02-11T11:28:32.362Z,10.26
2023-02-11T11:31:00.075Z,10.22
2023-02-11T11:33:30.323Z,10.26
2023-02-11T11:36:12.922Z,10.29
2023-02-11T11:39:01.490Z,10.38
2023-02-11T11:41:34.287Z,10.46
2023-02-11T11:44:26.152Z,10.57
2023-02-11T11:47:15.790Z,10.62
2023-02-11T11:49:55.482Z,10.65
2023-02-11T11:52:48.329Z,10.71
2023-02-11T11:55:22.313Z,10.67
2023-02-11T11:57:49.500Z,10.70
2023-02-11T12:00:32.366Z,10.64
2023-02-11T12:03:08.152Z,10.64
2023-02-11T12:06:05.756Z,10.72
2023-02-11T12:08:55.473Z,10.79
2023-02-11T12:11:34.956Z,10.75
2023-02-11T12:14:23.140Z,10.82
2023-02-11T12:17:11.337Z,10.80
2023-02-11T12:19:56.954Z,10.75
2023-02-11T12:22:53.597Z,10.82
2023-02-11T12:25:28.491Z,10.91
2023-02-11T12:28:01.034Z,10.84
2023-02-11T12:30:58.356Z,10.84
2023-02-11T12:33:28.049Z,10.82
2023-02-11T12:36:25.356Z,10.90
2023-02-11T12:38:55.001Z,10.90
2023-02-11T12:41:48.998Z,10.94
2023-02-11T12:44:48.056Z,11.05
2023-02-11T12:47:14.544Z,11.07
2023-02-11T12:49:55.056Z,11.16
2023-02-11T12:52:41.481Z,11.17
2023-02-11T12:55:24.624Z,11.24
2023-02-11T12:57:54.265Z,11.17
2023-02-11T13:00:25.438Z,11.22
2023-02-11T13:03:16.957Z,11.23
2023-02-11T13:05:50.028Z,11.28
2023-02-11T13:08:37.373Z,11.30
2023-02-11T13:11:14.432Z,11.29
2023-02-11T13:13:51.643Z,11.29
2023-02-11T13:16:38.515Z,11.26
2023-02-11T13:19:07.903Z,11.39
2023-02-11T13:21:49.844Z,11.40
2023-02-11T13:24:18.044Z,11.42
2023-02-11T13:27:05.842Z,11.44
2023-02-11T13:30:11.975Z,11.45
2023-02-11T13:32:53.725Z,11.48
2023-02-11T13:35:29.793Z,11.47
2023-02-11T13:37:57.868Z,11.42
2023-02-11T13:40:30.241Z,11.47
2023-02-11T13:43:04.239Z,11.41
2023-02-11T13:45:43.544Z,11.47
2023-02-11T13:48:24.896Z,11.52
2023-02-11T13:50:56.492Z,11.50
2023-02-11T13:53:23.763Z,11.53
2023-02-11T13:55:53.220Z,11.51
2023-02-11T13:58:28.590Z,11.52
2023-02-11T14:00:55.746Z,11.50
2023-02-11T14:03:48.765Z,11.48
2023-02-11T14:06:43.918Z,11.46
2023-02-11T14:09:10.881Z,11.49
2023-02-11T14:11:40.881Z,11.51
2023-02-11T14:14:26.836Z,11.53
2023-02-11T14:17:02.912Z,11.52
2023-02-11T14:19:33.728Z,11.45
2023-02-11T14:22:13.499Z,11.39
2023-02-11T14:24:47.869Z,11.40
2023-02-11T14:27:34.331Z,11.37
2023-02-11T14:30:26.554Z,11.40
2023-02-11T14:33:33.484Z,11.41
2023-02-11T14:36:10.652Z,11.41
2023-02-11T14:38:48.302Z,11.44
2023-02-11T14:41:21.326Z,11.40
2023-02-11T14:43:52.900Z,11.43
2023-02-11T14:46:21.041Z,11.48
2023-02-11T14:48:51.141Z,11.48
2023-02-11T14:51:26.092Z,11.49
2023-02-11T14:53:59.479Z,11.52
2023-02-11T14:56:31.073Z,11.53
2023-02-11T14:58:58.659Z,11.55
2023-02-11T15:01:36.522Z,11.52
2023-02-11T15:04:06.035Z,11.52
2023-02-11T15:06:39.529Z,11.51
2023-02-11T15:09:29.499Z,11.53
2023-02-11T15:11:57.472Z,11.50
2023-02-11T15:14:28.436Z,11.47
2023-02-11T15:16:58.603Z,11.46
2023-02-11T15:19:34.098Z,11.45
2023-02-11T15:22:02.380Z,11.42
2023-02-11T15:24:30.833Z,11.40
2023-02-11T15:27:04.145Z,11.34
2023-02-11T15:29:40.515Z,11.37
2023-02-11T15:32:10.101Z,11.31
2023-02-11T15:34:37.413Z,11.25
2023-02-11T15:37:04.691Z,11.23
2023-02-11T15:39:38.841Z,11.18
2023-02-11T15:42:17.541Z,11.17
2023-02-11T15:44:44.803Z,11.17
2023-02-11T15:47:13.476Z,11.14
2023-02-11T15:49:45.173Z,11.12
2023-02-11T15:52:14.591Z,11.03
2023-02-11T15:54:47.627Z,10.99
2023-02-11T15:57:15.169Z,10.94
2023-02-11T15:59:48.325Z,10.91
2023-02-11T16:02:25.199Z,10.89
2023-02-11T16:04:54.941Z,10.85
2023-02-11T16:07:50.681Z,10.83
2023-02-11T16:10:20.201Z,10.82
2023-02-11T16:13:08.527Z,10.84
2023-02-11T16:15:38.218Z,10.77
2023-02-11T16:18:15.953Z,10.74
2023-02-11T16:20:47.883Z,10.71
2023-02-11T16:23:23.202Z,10.66
2023-02-11T16:25:55.633Z,10.60
2023-02-11T16:28:22.593Z,10.58
2023-02-11T16:30:54.369Z,10.49
2023-02-11T16:33:21.990Z,10.45
2023-02-11T16:35:48.937Z,10.45
2023-02-11T16:38:17.184Z,10.43
2023-02-11T16:40:46.394Z,10.38
2023-02-11T16:43:13.022Z,10.38
2023-02-11T16:45:39.791Z,10.35
2023-02-11T16:48:08.794Z,10.30
2023-02-11T16:50:35.978Z,10.28
2023-02-11T16:53:06.211Z,10.26
2023-02-11T16:55:34.961Z,10.28
2023-02-11T16:58:01.934Z,10.27
2023-02-11T17:00:28.917Z,10.27
2023-02-11T17:02:56.187Z,10.28
2023-02-11T17:05:25.233Z,10.27
2023-02-11T17:07:52.566Z,10.27
2023-02-11T17:10:24.242Z,10.31
2023-02-11T17:12:51.493Z,10.31
2023-02-11T17:15:18.055Z,10.30
2023-02-11T17:17:45.829Z,10.29
2023-02-11T17:20:14.024Z,10.29
2023-02-11T17:22:40.862Z,10.26
2023-02-11T17:25:07.703Z,10.26
2023-02-11T17:27:34.645Z,10.24
2023-02-11T17:30:01.674Z,10.20
2023-02-11T17:32:28.245Z,10.19
2023-02-11T17:34:54.986Z,10.11
2023-02-11T17:37:21.583Z,10.06
2023-02-11T17:39:49.911Z,10.07
2023-02-11T17:42:19.628Z,10.05
2023-02-11T17:44:47.053Z,10.04
2023-02-11T17:47:13.983Z,10.02
2023-02-11T17:49:42.195Z,9.99
2023-02-11T17:52:10.539Z,9.98
2023-02-11T17:54:38.421Z,9.94
2023-02-11T17:57:07.968Z,9.94
2023-02-11T17:59:35.630Z,9.93
2023-02-11T18:02:04.423Z,9.90
2023-02-11T18:04:33.738Z,9.90
2023-02-11T18:07:00.946Z,9.91
2023-02-11T18:09:27.885Z,9.91
2023-02-11T18:11:56.661Z,9.90
2023-02-11T18:14:25.532Z,9.89
2023-02-11T18:16:53.176Z,9.87
2023-02-11T18:19:20.392Z,9.84
2023-02-11T18:21:48.972Z,9.83
2023-02-11T18:24:16.206Z,9.84
2023-02-11T18:26:42.777Z,9.83
2023-02-11T18:29:09.407Z,9.83
2023-02-11T18:31:36.794Z,9.84
2023-02-11T18:34:07.438Z,9.77
2023-02-11T18:36:34.527Z,9.75
2023-02-11T18:39:01.056Z,9.72
2023-02-11T18:41:27.854Z,9.69
2023-02-11T18:43:54.685Z,9.68
2023-02-11T18:46:21.409Z,9.70
2023-02-11T18:48:49.344Z,9.70
2023-02-11T18:51:18.794Z,9.71
2023-02-11T18:53:45.660Z,9.70
2023-02-11T18:56:16.145Z,9.68
2023-02-11T18:58:42.752Z,9.65
2023-02-11T19:01:14.900Z,9.62
2023-02-11T19:03:42.502Z,9.63
2023-02-11T19:06:17.414Z,9.61
2023-02-11T19:08:43.970Z,9.63
2023-02-11T19:11:11.009Z,9.64
2023-02-11T19:13:38.267Z,9.64
2023-02-11T19:16:09.364Z,9.65
2023-02-11T19:18:38.923Z,9.66
2023-02-11T19:21:10.492Z,9.68
2023-02-11T19:23:37.193Z,9.70
2023-02-11T19:26:04.698Z,9.68
2023-02-11T19:28:32.469Z,9.65
2023-02-11T19:31:05.599Z,9.64
2023-02-11T19:33:32.487Z,9.66
2023-02-11T19:36:06.832Z,9.68
2023-02-11T19:38:34.440Z,9.68
2023-02-11T19:41:01.145Z,9.72
2023-02-11T19:43:28.168Z,9.69
2023-02-11T19:45:56.655Z,9.66
2023-02-11T19:48:26.510Z,9.64
2023-02-11T19:50:54.622Z,9.63
2023-02-11T19:53:21.403Z,9.65
2023-02-11T19:55:48.108Z,9.64
2023-02-11T19:58:15.497Z,9.68
2023-02-11T20:00:42.368Z,9.75
2023-02-11T20:03:09.084Z,9.73
2023-02-11T20:05:40.108Z,9.75
2023-02-11T20:08:06.645Z,9.73
2023-02-11T20:10:35.037Z,9.72
2023-02-11T20:13:01.647Z,9.73
2023-02-11T20:15:28.331Z,9.71
2023-02-11T20:17:54.977Z,9.71
2023-02-11T20:20:21.459Z,9.70
2023-02-11T20:22:48.107Z,9.68
2023-02-11T20:25:14.846Z,9.67
2023-02-11T20:27:41.741Z,9.67
2023-02-11T20:30:09.561Z,9.67
2023-02-11T20:32:38.508Z,9.66
2023-02-11T20:35:08.227Z,9.66
2023-02-11T20:37:35.408Z,9.68
2023-02-11T20:40:01.912Z,9.69
2023-02-11T20:42:28.834Z,9.72
2023-02-11T20:44:55.450Z,9.71
2023-02-11T20:47:22.791Z,9.69
2023-02-11T20:49:49.588Z,9.68
2023-02-11T20:52:16.287Z,9.66
2023-02-11T20:54:42.843Z,9.65
2023-02-11T20:57:09.474Z,9.66
2023-02-11T20:59:36.159Z,9.70
2023-02-11T21:02:02.810Z,9.71
2023-02-11T21:04:31.445Z,9.70
2023-02-11T21:07:00.460Z,9.68
2023-02-11T21:09:30.407Z,9.62
2023-02-11T21:11:57.620Z,9.54
2023-02-11T21:14:26.577Z,9.43
2023-02-11T21:16:53.478Z,9.36
2023-02-11T21:19:20.286Z,9.27
2023-02-11T21:21:47.392Z,9.21
2023-02-11T21:24:14.263Z,9.15
2023-02-11T21:26:40.838Z,9.10
2023-02-11T21:29:08.449Z,9.06
2023-02-11T21:31:36.091Z,9.00
2023-02-11T21:34:03.535Z,8.93
2023-02-11T21:36:31.037Z,8.88
2023-02-11T21:38:58.145Z,8.83
2023-02-11T21:41:25.238Z,8.76
2023-02-11T21:43:52.225Z,8.70
2023-02-11T21:46:20.090Z,8.65
2023-02-11T21:48:47.139Z,8.64
2023-02-11T21:51:16.443Z,8.62
2023-02-11T21:53:43.449Z,8.58
2023-02-11T21:56:13.627Z,8.54
2023-02-11T21:58:40.516Z,8.50
2023-02-11T22:01:21.787Z,8.48
2023-02-11T22:03:48.343Z,8.45
2023-02-11T22:06:21.514Z,8.41
2023-02-11T22:08:49.561Z,8.41
2023-02-11T22:11:16.308Z,8.40
2023-02-11T22:13:43.342Z,8.37
2023-02-11T22:16:12.848Z,8.35
2023-02-11T22:18:40.068Z,8.33
2023-02-11T22:21:08.281Z,8.29
2023-02-11T22:23:35.078Z,8.27
2023-02-11T22:26:05.967Z,8.23
2023-02-11T22:28:32.875Z,8.22
2023-02-11T22:31:00.204Z,8.22
2023-02-11T22:33:28.512Z,8.20
2023-02-11T22:36:00.519Z,8.17
2023-02-11T22:38:28.954Z,8.16
2023-02-11T22:40:55.684Z,8.13
2023-02-11T22:43:22.369Z,8.10
2023-02-11T22:45:49.358Z,8.08
2023-02-11T22:48:16.320Z,8.08
2023-02-11T22:50:43.084Z,8.06
2023-02-11T22:53:10.105Z,8.03
2023-02-11T22:55:38.666Z,8.03
2023-02-11T22:58:06.025Z,8.01
2023-02-11T23:00:37.403Z,8.01
2023-02-11T23:03:05.234Z,7.99
2023-02-11T23:05:31.799Z,7.98
2023-02-11T23:07:58.322Z,7.97
2023-02-11T23:10:24.909Z,7.97
2023-02-11T23:12:51.409Z,7.94
2023-02-11T23:15:18.130Z,7.93
2023-02-11T23:17:44.699Z,7.93
2023-02-11T23:20:11.874Z,7.93
2023-02-11T23:22:38.588Z,7.91
2023-02-11T23:25:05.524Z,7.89
2023-02-11T23:27:32.159Z,7.88
2023-02-11T23:29:58.833Z,7.87
2023-02-11T23:32:25.436Z,7.85
2023-02-11T23:34:52.776Z,7.83
2023-02-11T23:37:19.251Z,7.82
2023-02-11T23:39:45.745Z,7.80
2023-02-11T23:42:12.305Z,7.80
2023-02-11T23:44:39.040Z,7.79
2023-02-11T23:47:05.578Z,7.78
2023-02-11T23:49:32.159Z,7.78
2023-02-11T23:51:58.718Z,7.78
2023-02-11T23:54:25.371Z,7.78
2023-02-11T23:56:51.908Z,7.77
2023-02-11T23:59:18.443Z,7.76
